createdAt,value
2019-05-10T00:00:14.858Z,12.90
2019-05-10T00:03:02.103Z,12.90
2019-05-10T00:05:49.565Z,13.00
2019-05-10T00:08:36.033Z,13.00
2019-05-10T00:11:33.926Z,13.00
2019-05-10T00:14:23.370Z,13.00
2019-05-10T00:16:54.634Z,13.10
2019-05-10T00:19:23.409Z,13.10
2019-05-10T00:21:52.177Z,13.10
2019-05-10T00:24:21.131Z,13.10
2019-05-10T00:26:49.953Z,13.10
2019-05-10T00:29:27.047Z,13.10
2019-05-10T00:31:55.769Z,13.20
2019-05-10T00:34:26.354Z,13.20
2019-05-10T00:36:55.051Z,13.20
2019-05-10T00:39:25.746Z,13.20
2019-05-10T00:41:54.198Z,13.20
2019-05-10T00:44:23.176Z,13.20
2019-05-10T00:46:51.912Z,13.20
2019-05-10T00:49:20.664Z,13.30
2019-05-10T00:51:50.180Z,13.30
2019-05-10T00:54:19.972Z,13.30
2019-05-10T00:56:49.910Z,13.30
2019-05-10T00:59:19.095Z,13.40
2019-05-10T01:01:47.938Z,13.30
2019-05-10T01:04:16.945Z,13.30
2019-05-10T01:06:45.788Z,13.30
2019-05-10T01:09:15.018Z,13.40
2019-05-10T01:11:43.682Z,13.40
2019-05-10T01:14:12.441Z,13.30
2019-05-10T01:16:41.154Z,13.30
2019-05-10T01:19:10.107Z,13.40
2019-05-10T01:21:38.893Z,13.40
2019-05-10T01:24:07.582Z,13.40
2019-05-10T01:26:39.253Z,13.40
2019-05-10T01:29:08.250Z,13.40
2019-05-10T01:31:40.026Z,13.40
2019-05-10T01:34:08.707Z,13.50
2019-05-10T01:36:39.135Z,13.50
2019-05-10T01:39:07.941Z,13.50
2019-05-10T01:41:36.637Z,13.60
2019-05-10T01:44:05.392Z,13.60
2019-05-10T01:46:35.031Z,13.60
2019-05-10T01:49:03.717Z,13.60
2019-05-10T01:51:32.710Z,13.70
2019-05-10T01:54:01.655Z,13.70
2019-05-10T01:56:30.354Z,13.70
2019-05-10T01:58:59.383Z,13.70
2019-05-10T02:01:28.087Z,13.70
2019-05-10T02:03:56.915Z,13.80
2019-05-10T02:06:25.754Z,13.80
2019-05-10T02:08:54.659Z,13.80
2019-05-10T02:11:23.539Z,13.80
2019-05-10T02:13:52.403Z,13.80
2019-05-10T02:16:21.131Z,13.70
2019-05-10T02:18:50.193Z,13.70
2019-05-10T02:21:21.035Z,13.70
2019-05-10T02:23:50.474Z,13.70
2019-05-10T02:26:20.750Z,13.70
2019-05-10T02:28:49.506Z,13.70
2019-05-10T02:31:21.432Z,13.70
2019-05-10T02:33:49.218Z,13.70
2019-05-10T02:36:17.972Z,13.70
2019-05-10T02:38:48.148Z,13.70
2019-05-10T02:41:17.710Z,13.70
2019-05-10T02:43:46.620Z,13.70
2019-05-10T02:46:15.639Z,13.70
2019-05-10T02:48:44.494Z,13.70
2019-05-10T02:51:13.251Z,13.60
2019-05-10T02:53:42.039Z,13.60
2019-05-10T02:56:29.197Z,13.70
2019-05-10T02:58:44.257Z,13.70
2019-05-10T03:01:14.275Z,13.70
2019-05-10T03:03:44.839Z,13.70
2019-05-10T03:06:15.575Z,13.70
2019-05-10T03:08:48.918Z,13.70
2019-05-10T03:11:17.939Z,13.70
2019-05-10T03:13:51.893Z,13.70
2019-05-10T03:16:22.243Z,13.70
2019-05-10T03:18:52.525Z,13.70
2019-05-10T03:21:22.791Z,13.60
2019-05-10T03:23:52.015Z,13.60
2019-05-10T03:26:20.751Z,13.60
2019-05-10T03:28:49.837Z,13.50
2019-05-10T03:31:19.097Z,13.50
2019-05-10T03:33:55.462Z,13.50
2019-05-10T03:36:19.028Z,13.60
2019-05-10T03:38:48.374Z,13.60
2019-05-10T03:41:17.543Z,13.60
2019-05-10T03:43:46.721Z,13.60
2019-05-10T03:46:15.748Z,13.60
2019-05-10T03:48:44.409Z,13.60
2019-05-10T03:51:13.302Z,13.50
2019-05-10T03:53:42.363Z,13.60
2019-05-10T03:56:11.051Z,13.50
2019-05-10T03:58:40.061Z,13.50
2019-05-10T04:01:09.006Z,13.50
2019-05-10T04:03:37.681Z,13.50
2019-05-10T04:06:06.594Z,13.50
2019-05-10T04:08:35.286Z,13.50
2019-05-10T04:11:04.395Z,13.50
2019-05-10T04:13:33.336Z,13.50
2019-05-10T04:16:02.101Z,13.60
2019-05-10T04:18:31.034Z,13.50
2019-05-10T04:21:00.273Z,13.50
2019-05-10T04:23:28.940Z,13.60
2019-05-10T04:25:57.783Z,13.60
2019-05-10T04:28:26.839Z,13.60
2019-05-10T04:30:55.792Z,13.60
2019-05-10T04:33:24.622Z,13.60
2019-05-10T04:35:53.565Z,13.70
2019-05-10T04:38:22.304Z,13.70
2019-05-10T04:40:50.995Z,13.70
2019-05-10T04:43:20.223Z,13.70
2019-05-10T04:45:48.964Z,13.80
2019-05-10T04:48:17.705Z,13.80
2019-05-10T04:50:49.155Z,13.80
2019-05-10T04:53:17.750Z,13.90
2019-05-10T04:55:46.469Z,14.00
2019-05-10T04:58:15.613Z,14.00
2019-05-10T05:00:44.362Z,14.10
2019-05-10T05:03:13.140Z,14.10
2019-05-10T05:05:41.907Z,14.10
2019-05-10T05:08:10.710Z,14.10
2019-05-10T05:10:39.849Z,14.20
2019-05-10T05:13:08.684Z,14.30
2019-05-10T05:15:37.386Z,14.30
2019-05-10T05:18:06.330Z,14.20
2019-05-10T05:20:35.292Z,14.40
2019-05-10T05:23:04.218Z,14.40
2019-05-10T05:25:35.257Z,14.50
2019-05-10T05:28:07.830Z,14.50
2019-05-10T05:30:34.128Z,14.50
2019-05-10T05:33:03.142Z,14.60
2019-05-10T05:35:32.291Z,14.60
2019-05-10T05:38:01.187Z,14.90
2019-05-10T05:40:30.216Z,15.20
2019-05-10T05:43:02.584Z,15.50
2019-05-10T05:45:34.090Z,15.80
2019-05-10T05:48:00.366Z,16.20
2019-05-10T05:50:29.723Z,16.50
2019-05-10T05:52:58.740Z,17.20
2019-05-10T05:55:30.725Z,18.10
2019-05-10T05:57:59.188Z,18.50
2019-05-10T06:00:28.403Z,18.40
2019-05-10T06:02:57.514Z,18.40
2019-05-10T06:05:33.975Z,18.30
2019-05-10T06:07:57.418Z,18.20
2019-05-10T06:10:26.320Z,17.90
2019-05-10T06:12:55.098Z,17.80
2019-05-10T06:15:29.005Z,17.60
2019-05-10T06:17:57.102Z,17.50
2019-05-10T06:20:24.986Z,17.10
2019-05-10T06:23:05.607Z,16.80
2019-05-10T06:25:37.189Z,16.60
2019-05-10T06:27:55.283Z,16.70
2019-05-10T06:30:24.028Z,16.70
2019-05-10T06:32:59.517Z,16.80
2019-05-10T06:35:23.726Z,17.10
2019-05-10T06:37:52.446Z,17.30
2019-05-10T06:40:33.503Z,17.50
2019-05-10T06:42:51.543Z,17.70
2019-05-10T06:45:20.351Z,17.70
2019-05-10T06:47:53.327Z,17.90
2019-05-10T06:50:28.870Z,17.90
2019-05-10T06:52:52.211Z,17.80
2019-05-10T06:55:21.081Z,17.70
2019-05-10T06:57:58.748Z,17.80
2019-05-10T07:00:20.468Z,18.00
2019-05-10T07:02:49.775Z,18.20
2019-05-10T07:05:18.486Z,18.10
2019-05-10T07:07:47.441Z,18.00
2019-05-10T07:10:19.393Z,18.10
2019-05-10T07:12:46.853Z,18.00
2019-05-10T07:15:16.702Z,17.90
2019-05-10T07:17:47.225Z,18.10
2019-05-10T07:20:16.518Z,18.20
2019-05-10T07:22:45.422Z,18.20
2019-05-10T07:25:14.086Z,18.20
2019-05-10T07:27:42.797Z,17.90
2019-05-10T07:30:12.387Z,17.50
2019-05-10T07:32:41.296Z,17.20
2019-05-10T07:35:10.380Z,17.10
2019-05-10T07:37:39.198Z,17.30
2019-05-10T07:40:10.292Z,17.60
2019-05-10T07:42:45.542Z,17.80
2019-05-10T07:45:09.874Z,18.10
2019-05-10T07:47:38.533Z,18.50
2019-05-10T07:50:09.551Z,19.00
2019-05-10T07:52:43.655Z,19.50
2019-05-10T07:55:10.508Z,20.00
2019-05-10T07:57:39.629Z,20.60
2019-05-10T08:00:09.680Z,21.30
2019-05-10T08:02:39.234Z,21.60
2019-05-10T08:05:10.852Z,21.80
2019-05-10T08:07:38.974Z,22.40
2019-05-10T08:10:08.711Z,22.40
2019-05-10T08:12:41.466Z,23.40
2019-05-10T08:15:08.938Z,24.40
2019-05-10T08:17:43.376Z,24.70
2019-05-10T08:20:18.678Z,25.10
2019-05-10T08:22:42.264Z,24.70
2019-05-10T08:25:12.643Z,24.20
2019-05-10T08:27:43.985Z,24.60
2019-05-10T08:30:22.644Z,24.70
2019-05-10T08:32:42.708Z,24.20
2019-05-10T08:35:17.225Z,24.60
2019-05-10T08:37:43.337Z,25.30
2019-05-10T08:40:13.024Z,25.90
2019-05-10T08:42:48.055Z,26.30
2019-05-10T08:45:13.211Z,26.50
2019-05-10T08:47:42.726Z,26.00
2019-05-10T08:50:28.899Z,25.80
2019-05-10T08:52:44.826Z,26.80
2019-05-10T08:55:13.931Z,26.50
2019-05-10T08:57:49.194Z,26.00
2019-05-10T09:00:13.470Z,25.20
2019-05-10T09:02:42.863Z,24.40
2019-05-10T09:05:12.562Z,23.80
2019-05-10T09:07:42.890Z,23.30
2019-05-10T09:10:12.796Z,22.30
2019-05-10T09:12:50.556Z,21.40
2019-05-10T09:15:13.962Z,21.40
2019-05-10T09:17:43.024Z,22.40
2019-05-10T09:20:20.822Z,24.20
2019-05-10T09:22:43.251Z,24.70
2019-05-10T09:25:15.094Z,25.40
2019-05-10T09:27:44.159Z,26.00
2019-05-10T09:30:18.088Z,25.90
2019-05-10T09:32:44.012Z,24.90
2019-05-10T09:35:13.212Z,23.80
2019-05-10T09:37:42.268Z,22.70
2019-05-10T09:40:13.446Z,21.80
2019-05-10T09:42:43.641Z,21.30
2019-05-10T09:45:12.975Z,21.10
2019-05-10T09:47:43.436Z,20.60
2019-05-10T09:50:13.655Z,20.20
2019-05-10T09:52:42.399Z,20.10
2019-05-10T09:55:14.805Z,19.80
2019-05-10T09:57:43.271Z,19.60
2019-05-10T10:00:13.235Z,19.30
2019-05-10T10:02:47.776Z,19.00
2019-05-10T10:05:12.846Z,18.90
2019-05-10T10:07:41.670Z,18.90
2019-05-10T10:10:12.852Z,18.90
2019-05-10T10:12:41.252Z,18.90
2019-05-10T10:15:13.951Z,18.90
2019-05-10T10:17:42.555Z,18.70
2019-05-10T10:20:11.374Z,18.70
2019-05-10T10:22:43.458Z,18.80
2019-05-10T10:25:10.630Z,18.90
2019-05-10T10:27:39.700Z,19.40
2019-05-10T10:30:12.683Z,20.00
2019-05-10T10:32:39.825Z,20.40
2019-05-10T10:35:13.310Z,20.80
2019-05-10T10:37:40.178Z,20.80
2019-05-10T10:40:09.487Z,21.10
2019-05-10T10:42:38.530Z,21.00
2019-05-10T10:45:08.951Z,20.70
2019-05-10T10:47:38.278Z,20.30
2019-05-10T10:50:13.248Z,20.30
2019-05-10T10:52:39.607Z,20.10
2019-05-10T10:55:11.919Z,20.30
2019-05-10T10:57:40.616Z,20.50
2019-05-10T11:00:11.439Z,20.60
2019-05-10T11:02:41.648Z,20.80
2019-05-10T11:05:11.075Z,20.70
2019-05-10T11:07:44.393Z,20.80
2019-05-10T11:10:16.158Z,20.70
2019-05-10T11:12:41.382Z,20.40
2019-05-10T11:15:11.451Z,20.30
2019-05-10T11:17:40.902Z,20.20
2019-05-10T11:20:11.522Z,20.40
2019-05-10T11:22:42.018Z,20.50
2019-05-10T11:25:12.838Z,20.70
2019-05-10T11:27:42.108Z,20.80
2019-05-10T11:30:12.158Z,20.80
2019-05-10T11:32:41.959Z,21.00
2019-05-10T11:35:11.815Z,21.10
2019-05-10T11:37:45.366Z,20.70
2019-05-10T11:40:17.448Z,20.60
2019-05-10T11:42:47.538Z,20.60
2019-05-10T11:45:15.685Z,20.60
2019-05-10T11:47:48.201Z,21.00
2019-05-10T11:50:27.746Z,21.40
2019-05-10T11:52:45.750Z,21.90
2019-05-10T11:55:15.120Z,22.10
2019-05-10T11:57:44.371Z,22.20
2019-05-10T12:00:28.241Z,22.10
2019-05-10T12:03:03.336Z,22.10
2019-05-10T12:05:20.518Z,21.80
2019-05-10T12:07:46.843Z,21.60
2019-05-10T12:10:21.134Z,21.50
2019-05-10T12:15:24.763Z,21.20
2019-05-10T12:17:57.683Z,20.80
2019-05-10T12:20:26.859Z,20.50
2019-05-10T12:22:51.719Z,20.00
2019-05-10T12:25:37.751Z,19.40
2019-05-10T12:26:31.162Z,21.40
2019-05-10T12:27:52.179Z,18.90
2019-05-10T12:30:21.533Z,18.70
2019-05-10T12:32:56.128Z,18.60
2019-05-10T12:35:21.412Z,18.60
2019-05-10T12:37:54.019Z,18.50
2019-05-10T12:40:24.212Z,18.10
2019-05-10T12:42:51.940Z,17.80
2019-05-10T12:45:23.260Z,17.30
2019-05-10T12:47:51.980Z,17.20
2019-05-10T12:50:21.944Z,17.10
2019-05-10T12:53:03.381Z,17.10
2019-05-10T12:55:21.811Z,17.30
2019-05-10T12:57:50.910Z,17.30
2019-05-10T13:00:22.059Z,17.40
2019-05-10T13:02:53.501Z,17.40
2019-05-10T13:05:31.251Z,17.40
2019-05-10T13:07:53.025Z,17.40
2019-05-10T13:10:21.799Z,17.30
2019-05-10T13:12:50.814Z,17.30
2019-05-10T13:15:24.669Z,17.30
2019-05-10T13:17:52.828Z,17.40
2019-05-10T13:20:21.331Z,17.40
2019-05-10T13:22:50.133Z,17.50
2019-05-10T13:25:19.288Z,17.50
2019-05-10T13:27:48.304Z,17.60
2019-05-10T13:30:27.416Z,17.60
2019-05-10T13:32:53.090Z,17.70
2019-05-10T13:35:18.866Z,17.70
2019-05-10T13:37:47.594Z,17.70
2019-05-10T13:40:16.404Z,17.70
2019-05-10T13:42:46.015Z,17.70
2019-05-10T13:45:15.298Z,17.70
2019-05-10T13:47:46.420Z,17.80
2019-05-10T13:50:15.331Z,18.00
2019-05-10T13:52:44.040Z,18.20
2019-05-10T13:55:12.843Z,18.20
2019-05-10T13:57:41.583Z,18.30
2019-05-10T14:00:12.002Z,18.40
2019-05-10T14:02:40.691Z,18.70
2019-05-10T14:05:11.931Z,18.90
2019-05-10T14:07:40.296Z,19.40
2019-05-10T14:10:09.343Z,19.40
2019-05-10T14:12:38.456Z,19.60
2019-05-10T14:15:12.887Z,19.80
2019-05-10T14:17:38.542Z,20.20
2019-05-10T14:20:19.708Z,20.50
2019-05-10T14:22:38.749Z,20.60
2019-05-10T14:25:07.846Z,20.70
2019-05-10T14:27:38.562Z,20.80
2019-05-10T14:30:13.603Z,20.70
2019-05-10T14:32:39.640Z,20.60
2019-05-10T14:35:08.902Z,20.60
2019-05-10T14:37:37.590Z,20.70
2019-05-10T14:40:06.821Z,20.70
2019-05-10T14:42:35.835Z,20.50
2019-05-10T14:45:05.040Z,20.30
2019-05-10T14:47:46.763Z,20.20
2019-05-10T14:50:04.985Z,20.20
2019-05-10T14:52:33.665Z,20.20
2019-05-10T14:55:02.349Z,20.30
2019-05-10T14:57:31.094Z,20.20
2019-05-10T14:59:59.897Z,20.20
2019-05-10T15:02:28.687Z,20.10
2019-05-10T15:05:00.920Z,20.00
2019-05-10T15:07:30.622Z,19.90
2019-05-10T15:10:00.385Z,19.60
2019-05-10T15:12:31.523Z,19.40
2019-05-10T15:15:00.298Z,19.30
2019-05-10T15:17:30.368Z,19.20
2019-05-10T15:20:00.092Z,19.10
2019-05-10T15:22:29.348Z,19.20
2019-05-10T15:24:59.734Z,19.10
2019-05-10T15:27:28.642Z,19.10
2019-05-10T15:29:58.645Z,19.10
2019-05-10T15:32:28.447Z,18.90
2019-05-10T15:35:06.285Z,18.80
2019-05-10T15:37:27.915Z,18.60
2019-05-10T15:40:00.507Z,18.10
2019-05-10T15:42:30.496Z,17.80
2019-05-10T15:44:57.759Z,17.70
2019-05-10T15:47:26.444Z,17.80
2019-05-10T15:50:00.113Z,18.00
2019-05-10T15:52:25.860Z,18.10
2019-05-10T15:54:54.943Z,18.20
2019-05-10T15:57:24.310Z,18.10
2019-05-10T15:59:56.913Z,18.10
2019-05-10T16:02:24.034Z,18.00
2019-05-10T16:04:53.053Z,17.90
2019-05-10T16:07:21.721Z,17.70
2019-05-10T16:09:54.450Z,17.40
2019-05-10T16:12:21.558Z,17.20
2019-05-10T16:14:50.230Z,17.10
2019-05-10T16:17:23.564Z,17.20
2019-05-10T16:19:50.961Z,17.30
2019-05-10T16:22:25.318Z,17.40
2019-05-10T16:24:52.835Z,17.30
2019-05-10T16:27:21.633Z,17.30
2019-05-10T16:29:50.474Z,17.40
2019-05-10T16:32:19.237Z,17.40
2019-05-10T16:34:47.979Z,17.30
2019-05-10T16:37:16.702Z,17.30
2019-05-10T16:39:45.363Z,17.20
2019-05-10T16:42:14.037Z,17.00
2019-05-10T16:44:42.691Z,17.00
2019-05-10T16:47:11.359Z,16.90
2019-05-10T16:49:40.498Z,16.90
2019-05-10T16:52:09.523Z,16.80
2019-05-10T16:54:38.223Z,16.70
2019-05-10T16:57:06.991Z,16.60
2019-05-10T16:59:36.206Z,16.60
2019-05-10T17:02:06.499Z,16.60
2019-05-10T17:04:37.883Z,16.60
2019-05-10T17:07:06.316Z,16.50
2019-05-10T17:09:35.122Z,16.40
2019-05-10T17:12:04.957Z,16.30
2019-05-10T17:14:33.640Z,16.20
2019-05-10T17:17:02.392Z,16.00
2019-05-10T17:19:34.058Z,15.80
2019-05-10T17:22:01.589Z,15.80
2019-05-10T17:24:30.378Z,15.70
2019-05-10T17:26:59.095Z,15.70
2019-05-10T17:29:27.775Z,15.70
2019-05-10T17:31:56.438Z,15.60
2019-05-10T17:34:29.545Z,15.60
2019-05-10T17:36:58.138Z,15.60
2019-05-10T17:39:32.071Z,15.50
2019-05-10T17:41:57.606Z,15.50
2019-05-10T17:44:27.641Z,15.40
2019-05-10T17:46:57.484Z,15.40
2019-05-10T17:49:26.434Z,15.40
2019-05-10T17:51:55.188Z,15.40
2019-05-10T17:54:24.008Z,15.30
2019-05-10T17:56:52.805Z,15.30
2019-05-10T17:59:21.811Z,15.20
2019-05-10T18:01:53.337Z,15.10
2019-05-10T18:04:22.866Z,15.00
2019-05-10T18:06:51.712Z,14.90
2019-05-10T18:09:20.552Z,14.90
2019-05-10T18:11:49.490Z,14.90
2019-05-10T18:14:19.736Z,14.80
2019-05-10T18:16:50.167Z,14.70
2019-05-10T18:19:24.830Z,14.70
2019-05-10T18:21:55.047Z,14.60
2019-05-10T18:24:20.342Z,14.60
2019-05-10T18:26:49.279Z,14.50
2019-05-10T18:29:18.019Z,14.50
2019-05-10T18:31:54.656Z,14.50
2019-05-10T18:34:17.338Z,14.40
2019-05-10T18:36:51.519Z,14.40
2019-05-10T18:39:17.818Z,14.30
2019-05-10T18:41:48.143Z,14.20
2019-05-10T18:44:16.931Z,14.20
2019-05-10T18:46:45.671Z,14.10
2019-05-10T18:49:14.687Z,14.10
2019-05-10T18:51:43.611Z,14.00
2019-05-10T18:54:12.365Z,14.00
2019-05-10T18:56:41.407Z,13.90
2019-05-10T18:59:10.102Z,13.90
2019-05-10T19:01:40.614Z,13.80
2019-05-10T19:04:13.934Z,13.80
2019-05-10T19:06:44.199Z,13.70
2019-05-10T19:09:10.654Z,13.70
2019-05-10T19:11:40.919Z,13.60
2019-05-10T19:14:10.255Z,13.50
2019-05-10T19:16:39.283Z,13.50
2019-05-10T19:19:08.415Z,13.40
2019-05-10T19:21:38.085Z,13.40
2019-05-10T19:24:08.901Z,13.40
2019-05-10T19:26:37.706Z,13.30
2019-05-10T19:29:06.828Z,13.30
2019-05-10T19:31:38.265Z,13.30
2019-05-10T19:34:08.989Z,13.20
2019-05-10T19:36:36.815Z,13.20
2019-05-10T19:39:06.737Z,13.30
2019-05-10T19:41:36.060Z,13.30
2019-05-10T19:44:04.814Z,13.30
2019-05-10T19:46:39.016Z,13.40
2019-05-10T19:49:07.606Z,13.40
2019-05-10T19:51:35.288Z,13.40
2019-05-10T19:54:04.129Z,13.50
2019-05-10T19:56:36.653Z,13.50
2019-05-10T19:59:05.395Z,13.50
2019-05-10T20:01:33.938Z,13.50
2019-05-10T20:04:02.644Z,13.50
2019-05-10T20:06:31.534Z,13.50
2019-05-10T20:09:00.212Z,13.50
2019-05-10T20:11:29.031Z,13.50
2019-05-10T20:13:57.738Z,13.40
2019-05-10T20:16:26.502Z,13.40
2019-05-10T20:18:55.382Z,13.40
2019-05-10T20:21:24.450Z,13.40
2019-05-10T20:23:53.371Z,13.40
2019-05-10T20:26:22.140Z,13.40
2019-05-10T20:28:51.111Z,13.40
2019-05-10T20:31:20.359Z,13.40
2019-05-10T20:33:49.158Z,13.30
2019-05-10T20:36:18.247Z,13.30
2019-05-10T20:38:46.934Z,13.30
2019-05-10T20:41:15.708Z,13.20
2019-05-10T20:43:44.714Z,13.20
2019-05-10T20:46:13.458Z,13.20
2019-05-10T20:48:42.498Z,13.20
2019-05-10T20:51:11.773Z,13.20
2019-05-10T20:53:40.961Z,13.20
2019-05-10T20:56:09.870Z,13.20
2019-05-10T20:58:39.002Z,13.10
2019-05-10T21:01:07.684Z,13.10
2019-05-10T21:03:36.625Z,13.10
2019-05-10T21:06:05.378Z,13.10
2019-05-10T21:08:34.351Z,13.10
2019-05-10T21:11:03.078Z,13.10
2019-05-10T21:13:31.809Z,13.00
2019-05-10T21:16:00.766Z,13.00
2019-05-10T21:18:29.823Z,13.00
2019-05-10T21:20:58.705Z,13.00
2019-05-10T21:23:27.396Z,12.90
2019-05-10T21:25:56.319Z,13.00
2019-05-10T21:28:24.996Z,12.80
2019-05-10T21:30:53.853Z,12.70
2019-05-10T21:33:22.758Z,12.70
2019-05-10T21:35:51.441Z,12.60
2019-05-10T21:38:32.533Z,12.50
2019-05-10T21:40:50.929Z,12.50
2019-05-10T21:43:19.887Z,12.50
2019-05-10T21:45:48.631Z,12.40
2019-05-10T21:48:17.589Z,12.40
2019-05-10T21:50:46.484Z,12.40
2019-05-10T21:53:15.445Z,12.30
2019-05-10T21:55:44.178Z,12.30
2019-05-10T21:58:12.867Z,12.30
2019-05-10T22:00:45.251Z,12.20
2019-05-10T22:03:14.454Z,12.20
2019-05-10T22:05:43.123Z,12.10
2019-05-10T22:08:12.014Z,12.10
2019-05-10T22:10:41.062Z,12.00
2019-05-10T22:13:09.831Z,12.00
2019-05-10T22:15:38.736Z,12.00
2019-05-10T22:18:07.727Z,12.00
2019-05-10T22:20:36.722Z,12.00
2019-05-10T22:23:06.159Z,12.00
2019-05-10T22:25:34.967Z,12.00
2019-05-10T22:28:03.663Z,12.00
2019-05-10T22:30:32.341Z,12.00
2019-05-10T22:33:01.384Z,12.00
2019-05-10T22:35:30.429Z,12.00
2019-05-10T22:37:59.346Z,11.90
2019-05-10T22:40:28.115Z,11.90
2019-05-10T22:42:56.806Z,11.80
2019-05-10T22:45:25.525Z,11.80
2019-05-10T22:47:54.943Z,11.70
2019-05-10T22:50:23.677Z,11.70
2019-05-10T22:52:52.643Z,11.60
2019-05-10T22:55:21.431Z,11.50
2019-05-10T22:57:50.192Z,11.50
2019-05-10T23:00:19.807Z,11.40
2019-05-10T23:02:49.156Z,11.40
2019-05-10T23:05:18.147Z,11.30
2019-05-10T23:07:47.046Z,11.30
2019-05-10T23:10:16.039Z,11.30
2019-05-10T23:12:44.913Z,11.30
2019-05-10T23:15:14.133Z,11.40
2019-05-10T23:17:42.951Z,11.40
2019-05-10T23:20:12.226Z,11.50
2019-05-10T23:22:41.177Z,11.60
2019-05-10T23:25:11.841Z,11.50
2019-05-10T23:27:40.602Z,11.60
2019-05-10T23:30:09.596Z,11.70
2019-05-10T23:32:38.563Z,11.70
2019-05-10T23:35:08.025Z,11.70
2019-05-10T23:37:36.856Z,11.80
2019-05-10T23:40:06.073Z,11.80
2019-05-10T23:42:34.984Z,11.80
2019-05-10T23:45:03.901Z,11.90
2019-05-10T23:47:32.664Z,11.90
2019-05-10T23:50:01.354Z,12.00
2019-05-10T23:52:30.056Z,12.00
2019-05-10T23:54:58.738Z,12.00
2019-05-10T23:57:27.668Z,12.00
2019-05-10T23:59:56.382Z,12.00
